sensor_id;sensor_type;location;lat;lon;timestamp;pressure;altitude;pressure_sealevel;temperature;humidity
70930;BME280;58588;48.102;19.682;2023-03-18T00:01:49;99968.84;;;-1.11;100.00
70930;BME280;58588;48.102;19.682;2023-03-18T00:04:51;99978.78;;;-1.14;100.00
70930;BME280;58588;48.102;19.682;2023-03-18T00:07:53;99958.88;;;-1.20;100.00
70930;BME280;58588;48.102;19.682;2023-03-18T00:10:56;99965.72;;;-1.44;100.00
70930;BME280;58588;48.102;19.682;2023-03-18T00:14:00;99973.25;;;-1.65;100.00
70930;BME280;58588;48.102;19.682;2023-03-18T00:17:02;99971.66;;;-1.68;100.00
70930;BME280;58588;48.102;19.682;2023-03-18T00:20:07;99967.28;;;-1.69;100.00
70930;BME280;58588;48.102;19.682;2023-03-18T00:23:12;99954.00;;;-1.81;100.00
70930;BME280;58588;48.102;19.682;2023-03-18T00:26:14;99955.97;;;-1.71;100.00
70930;BME280;58588;48.102;19.682;2023-03-18T00:29:18;99955.59;;;-1.65;100.00
70930;BME280;58588;48.102;19.682;2023-03-18T00:32:20;99950.59;;;-1.55;100.00
70930;BME280;58588;48.102;19.682;2023-03-18T00:35:25;99959.09;;;-1.64;100.00
70930;BME280;58588;48.102;19.682;2023-03-18T00:38:29;99950.78;;;-1.86;100.00
70930;BME280;58588;48.102;19.682;2023-03-18T00:41:33;99957.03;;;-1.88;100.00
70930;BME280;58588;48.102;19.682;2023-03-18T00:44:37;99948.84;;;-1.97;100.00
70930;BME280;58588;48.102;19.682;2023-03-18T00:47:39;99960.44;;;-2.00;100.00
70930;BME280;58588;48.102;19.682;2023-03-18T00:50:42;99952.63;;;-2.01;100.00
70930;BME280;58588;48.102;19.682;2023-03-18T00:53:46;99944.47;;;-1.98;100.00
70930;BME280;58588;48.102;19.682;2023-03-18T00:56:49;99943.84;;;-2.02;100.00
70930;BME280;58588;48.102;19.682;2023-03-18T00:59:53;99940.94;;;-1.97;100.00
70930;BME280;58588;48.102;19.682;2023-03-18T01:02:55;99935.16;;;-2.18;100.00
70930;BME280;58588;48.102;19.682;2023-03-18T01:05:57;99929.88;;;-2.18;100.00
70930;BME280;58588;48.102;19.682;2023-03-18T01:09:00;99923.09;;;-2.22;100.00
70930;BME280;58588;48.102;19.682;2023-03-18T01:12:02;99927.81;;;-2.27;100.00
70930;BME280;58588;48.102;19.682;2023-03-18T01:15:08;99926.88;;;-2.26;100.00
70930;BME280;58588;48.102;19.682;2023-03-18T01:18:12;99911.28;;;-2.17;100.00
70930;BME280;58588;48.102;19.682;2023-03-18T01:21:14;99918.31;;;-2.16;100.00
70930;BME280;58588;48.102;19.682;2023-03-18T01:24:17;99916.97;;;-2.23;100.00
70930;BME280;58588;48.102;19.682;2023-03-18T01:27:19;99916.88;;;-2.21;100.00
70930;BME280;58588;48.102;19.682;2023-03-18T01:30:23;99916.03;;;-2.22;100.00
70930;BME280;58588;48.102;19.682;2023-03-18T01:33:26;99911.41;;;-2.32;100.00
70930;BME280;58588;48.102;19.682;2023-03-18T01:36:29;99908.47;;;-2.42;100.00
70930;BME280;58588;48.102;19.682;2023-03-18T01:39:31;99917.44;;;-2.45;100.00
70930;BME280;58588;48.102;19.682;2023-03-18T01:42:33;99907.72;;;-2.44;100.00
70930;BME280;58588;48.102;19.682;2023-03-18T01:45:38;99898.28;;;-2.48;100.00
70930;BME280;58588;48.102;19.682;2023-03-18T01:48:41;99897.53;;;-2.50;100.00
70930;BME280;58588;48.102;19.682;2023-03-18T01:51:47;99898.97;;;-2.45;100.00
70930;BME280;58588;48.102;19.682;2023-03-18T01:54:54;99901.31;;;-2.40;100.00
70930;BME280;58588;48.102;19.682;2023-03-18T01:58:01;99890.66;;;-2.53;100.00
70930;BME280;58588;48.102;19.682;2023-03-18T02:01:11;99889.69;;;-2.66;100.00
70930;BME280;58588;48.102;19.682;2023-03-18T02:04:15;99884.41;;;-2.66;100.00
70930;BME280;58588;48.102;19.682;2023-03-18T02:07:23;99892.06;;;-2.61;100.00
70930;BME280;58588;48.102;19.682;2023-03-18T02:10:26;99884.25;;;-2.63;100.00
70930;BME280;58588;48.102;19.682;2023-03-18T02:13:29;99895.47;;;-2.45;100.00
70930;BME280;58588;48.102;19.682;2023-03-18T02:16:38;99899.59;;;-2.41;100.00
70930;BME280;58588;48.102;19.682;2023-03-18T02:19:53;99894.63;;;-2.31;100.00
70930;BME280;58588;48.102;19.682;2023-03-18T02:23:03;99893.28;;;-2.24;100.00
70930;BME280;58588;48.102;19.682;2023-03-18T02:26:14;99883.69;;;-2.25;100.00
70930;BME280;58588;48.102;19.682;2023-03-18T02:29:22;99887.19;;;-2.39;100.00
70930;BME280;58588;48.102;19.682;2023-03-18T02:32:27;99876.22;;;-2.61;100.00
70930;BME280;58588;48.102;19.682;2023-03-18T02:35:33;99881.44;;;-2.46;100.00
70930;BME280;58588;48.102;19.682;2023-03-18T02:38:40;99876.06;;;-2.44;100.00
70930;BME280;58588;48.102;19.682;2023-03-18T02:41:43;99864.56;;;-2.43;100.00
70930;BME280;58588;48.102;19.682;2023-03-18T02:44:47;99866.63;;;-2.48;100.00
70930;BME280;58588;48.102;19.682;2023-03-18T02:51:35;99867.28;;;-2.59;100.00
70930;BME280;58588;48.102;19.682;2023-03-18T02:54:37;99869.09;;;-2.45;100.00
70930;BME280;58588;48.102;19.682;2023-03-18T02:57:39;99864.34;;;-2.54;100.00
70930;BME280;58588;48.102;19.682;2023-03-18T03:00:43;99869.72;;;-2.42;100.00
70930;BME280;58588;48.102;19.682;2023-03-18T03:03:45;99873.69;;;-2.49;100.00
70930;BME280;58588;48.102;19.682;2023-03-18T03:06:47;99870.94;;;-2.47;100.00
70930;BME280;58588;48.102;19.682;2023-03-18T03:09:49;99873.38;;;-2.58;100.00
70930;BME280;58588;48.102;19.682;2023-03-18T03:12:54;99878.66;;;-2.58;100.00
70930;BME280;58588;48.102;19.682;2023-03-18T03:15:57;99874.28;;;-2.58;100.00
70930;BME280;58588;48.102;19.682;2023-03-18T03:18:59;99873.28;;;-2.71;100.00
70930;BME280;58588;48.102;19.682;2023-03-18T03:22:02;99878.13;;;-2.63;100.00
70930;BME280;58588;48.102;19.682;2023-03-18T03:25:05;99872.91;;;-2.79;100.00
70930;BME280;58588;48.102;19.682;2023-03-18T03:28:08;99885.53;;;-2.84;100.00
70930;BME280;58588;48.102;19.682;2023-03-18T03:31:11;99891.69;;;-2.70;100.00
70930;BME280;58588;48.102;19.682;2023-03-18T03:34:13;99891.69;;;-2.70;100.00
70930;BME280;58588;48.102;19.682;2023-03-18T03:37:15;99894.19;;;-2.82;100.00
70930;BME280;58588;48.102;19.682;2023-03-18T03:40:19;99906.88;;;-2.89;100.00
70930;BME280;58588;48.102;19.682;2023-03-18T03:43:21;99908.53;;;-2.86;100.00
70930;BME280;58588;48.102;19.682;2023-03-18T03:46:25;99913.31;;;-2.79;100.00
70930;BME280;58588;48.102;19.682;2023-03-18T03:49:27;99915.16;;;-2.95;100.00
70930;BME280;58588;48.102;19.682;2023-03-18T03:52:29;99902.44;;;-3.03;100.00
70930;BME280;58588;48.102;19.682;2023-03-18T03:55:31;99920.44;;;-2.95;100.00
70930;BME280;58588;48.102;19.682;2023-03-18T03:58:34;99930.81;;;-2.92;100.00
70930;BME280;58588;48.102;19.682;2023-03-18T04:01:37;99922.72;;;-2.89;100.00
70930;BME280;58588;48.102;19.682;2023-03-18T04:04:39;99925.81;;;-2.97;100.00
70930;BME280;58588;48.102;19.682;2023-03-18T04:07:42;99928.72;;;-3.01;100.00
70930;BME280;58588;48.102;19.682;2023-03-18T04:10:44;99924.97;;;-2.97;100.00
70930;BME280;58588;48.102;19.682;2023-03-18T04:13:46;99933.81;;;-2.98;100.00
70930;BME280;58588;48.102;19.682;2023-03-18T04:16:50;99923.53;;;-3.03;100.00
70930;BME280;58588;48.102;19.682;2023-03-18T04:19:52;99927.22;;;-3.05;100.00
70930;BME280;58588;48.102;19.682;2023-03-18T04:22:54;99922.91;;;-3.22;100.00
70930;BME280;58588;48.102;19.682;2023-03-18T04:25:56;99934.94;;;-3.18;100.00
70930;BME280;58588;48.102;19.682;2023-03-18T04:28:58;99943.66;;;-3.32;100.00
70930;BME280;58588;48.102;19.682;2023-03-18T04:32:02;99945.19;;;-3.28;100.00
70930;BME280;58588;48.102;19.682;2023-03-18T04:35:05;99941.81;;;-3.30;100.00
70930;BME280;58588;48.102;19.682;2023-03-18T04:38:08;99943.41;;;-3.27;100.00
70930;BME280;58588;48.102;19.682;2023-03-18T04:41:11;99952.75;;;-3.21;100.00
70930;BME280;58588;48.102;19.682;2023-03-18T04:44:13;99953.00;;;-3.10;100.00
70930;BME280;58588;48.102;19.682;2023-03-18T04:47:18;99957.13;;;-3.06;100.00
70930;BME280;58588;48.102;19.682;2023-03-18T04:50:20;99954.72;;;-2.95;100.00
70930;BME280;58588;48.102;19.682;2023-03-18T04:53:23;99957.22;;;-3.08;100.00
70930;BME280;58588;48.102;19.682;2023-03-18T04:56:25;99962.34;;;-3.05;100.00
70930;BME280;58588;48.102;19.682;2023-03-18T04:59:27;99962.34;;;-3.05;100.00
70930;BME280;58588;48.102;19.682;2023-03-18T05:02:31;99972.03;;;-3.05;100.00
70930;BME280;58588;48.102;19.682;2023-03-18T05:05:33;99961.66;;;-3.24;100.00
70930;BME280;58588;48.102;19.682;2023-03-18T05:08:35;99961.41;;;-3.19;100.00
70930;BME280;58588;48.102;19.682;2023-03-18T05:11:38;99963.88;;;-3.16;100.00
70930;BME280;58588;48.102;19.682;2023-03-18T05:14:40;99978.06;;;-3.03;100.00
70930;BME280;58588;48.102;19.682;2023-03-18T05:17:44;99963.03;;;-3.17;100.00
70930;BME280;58588;48.102;19.682;2023-03-18T05:20:47;99973.91;;;-3.07;100.00
70930;BME280;58588;48.102;19.682;2023-03-18T05:23:49;99976.13;;;-3.00;100.00
70930;BME280;58588;48.102;19.682;2023-03-18T05:26:51;99981.28;;;-2.98;100.00
70930;BME280;58588;48.102;19.682;2023-03-18T05:29:54;99974.31;;;-2.99;100.00
70930;BME280;58588;48.102;19.682;2023-03-18T05:32:58;99974.81;;;-2.92;100.00
70930;BME280;58588;48.102;19.682;2023-03-18T05:36:02;99987.19;;;-2.79;100.00
70930;BME280;58588;48.102;19.682;2023-03-18T05:39:05;99975.91;;;-2.66;100.00
70930;BME280;58588;48.102;19.682;2023-03-18T05:42:08;99977.31;;;-2.45;100.00
70930;BME280;58588;48.102;19.682;2023-03-18T05:45:11;99976.53;;;-2.47;100.00
70930;BME280;58588;48.102;19.682;2023-03-18T05:48:15;99980.22;;;-2.50;100.00
70930;BME280;58588;48.102;19.682;2023-03-18T05:51:17;99974.28;;;-2.39;100.00
70930;BME280;58588;48.102;19.682;2023-03-18T05:54:20;99978.25;;;-2.32;100.00
70930;BME280;58588;48.102;19.682;2023-03-18T05:57:22;99965.53;;;-2.25;100.00
70930;BME280;58588;48.102;19.682;2023-03-18T06:00:26;99970.53;;;-2.06;100.00
70930;BME280;58588;48.102;19.682;2023-03-18T06:03:31;99967.34;;;-1.97;100.00
70930;BME280;58588;48.102;19.682;2023-03-18T06:06:34;99970.81;;;-1.82;100.00
70930;BME280;58588;48.102;19.682;2023-03-18T06:09:36;99974.31;;;-1.68;100.00
70930;BME280;58588;48.102;19.682;2023-03-18T06:12:39;99981.47;;;-1.55;100.00
70930;BME280;58588;48.102;19.682;2023-03-18T06:15:42;99975.38;;;-1.43;100.00
70930;BME280;58588;48.102;19.682;2023-03-18T06:18:45;99979.94;;;-1.18;100.00
70930;BME280;58588;48.102;19.682;2023-03-18T06:21:48;99985.16;;;-1.04;100.00
70930;BME280;58588;48.102;19.682;2023-03-18T06:24:51;99975.03;;;-0.97;100.00
70930;BME280;58588;48.102;19.682;2023-03-18T06:27:53;99988.69;;;-0.64;100.00
70930;BME280;58588;48.102;19.682;2023-03-18T06:30:55;99985.72;;;-0.72;100.00
70930;BME280;58588;48.102;19.682;2023-03-18T06:34:02;99985.13;;;-0.37;100.00
70930;BME280;58588;48.102;19.682;2023-03-18T06:37:04;99978.25;;;-0.40;100.00
70930;BME280;58588;48.102;19.682;2023-03-18T06:40:09;99993.00;;;-0.23;100.00
70930;BME280;58588;48.102;19.682;2023-03-18T06:43:12;99990.41;;;-0.24;100.00
70930;BME280;58588;48.102;19.682;2023-03-18T06:46:15;99990.66;;;-0.15;100.00
70930;BME280;58588;48.102;19.682;2023-03-18T06:49:18;99995.41;;;0.06;100.00
70930;BME280;58588;48.102;19.682;2023-03-18T06:52:21;99991.56;;;0.35;100.00
70930;BME280;58588;48.102;19.682;2023-03-18T06:55:24;99984.44;;;0.48;100.00
70930;BME280;58588;48.102;19.682;2023-03-18T06:58:26;99997.81;;;1.07;100.00
70930;BME280;58588;48.102;19.682;2023-03-18T07:01:28;100001.94;;;1.12;100.00
70930;BME280;58588;48.102;19.682;2023-03-18T07:04:33;99997.03;;;1.18;100.00
70930;BME280;58588;48.102;19.682;2023-03-18T07:07:35;99998.88;;;1.29;100.00
70930;BME280;58588;48.102;19.682;2023-03-18T07:10:38;100000.56;;;1.65;100.00
70930;BME280;58588;48.102;19.682;2023-03-18T07:13:40;99998.72;;;2.01;100.00
70930;BME280;58588;48.102;19.682;2023-03-18T07:16:42;99996.56;;;2.06;100.00
70930;BME280;58588;48.102;19.682;2023-03-18T07:19:45;99997.75;;;2.13;100.00
70930;BME280;58588;48.102;19.682;2023-03-18T07:22:48;100005.03;;;2.33;100.00
70930;BME280;58588;48.102;19.682;2023-03-18T07:25:50;100002.72;;;2.51;100.00
70930;BME280;58588;48.102;19.682;2023-03-18T07:28:53;100010.19;;;2.91;100.00
70930;BME280;58588;48.102;19.682;2023-03-18T07:31:55;100008.19;;;3.15;100.00
70930;BME280;58588;48.102;19.682;2023-03-18T07:34:59;100011.44;;;3.51;100.00
70930;BME280;58588;48.102;19.682;2023-03-18T07:38:02;100011.47;;;3.72;97.00
70930;BME280;58588;48.102;19.682;2023-03-18T07:41:04;100014.50;;;4.09;94.62
70930;BME280;58588;48.102;19.682;2023-03-18T07:44:10;100013.25;;;4.13;97.53
70930;BME280;58588;48.102;19.682;2023-03-18T07:47:12;100014.47;;;4.30;93.51
70930;BME280;58588;48.102;19.682;2023-03-18T07:50:17;100017.41;;;4.57;89.38
70930;BME280;58588;48.102;19.682;2023-03-18T07:53:19;100019.75;;;4.91;80.13
70930;BME280;58588;48.102;19.682;2023-03-18T07:56:21;100020.22;;;5.16;81.03
70930;BME280;58588;48.102;19.682;2023-03-18T07:59:23;100012.38;;;5.62;72.21
70930;BME280;58588;48.102;19.682;2023-03-18T08:02:26;100021.09;;;5.74;71.30
70930;BME280;58588;48.102;19.682;2023-03-18T08:05:29;100014.75;;;5.85;71.69
70930;BME280;58588;48.102;19.682;2023-03-18T08:08:33;100016.31;;;6.07;68.77
70930;BME280;58588;48.102;19.682;2023-03-18T08:11:35;99998.09;;;6.20;70.21
70930;BME280;58588;48.102;19.682;2023-03-18T08:14:37;99992.56;;;6.31;71.19
70930;BME280;58588;48.102;19.682;2023-03-18T08:17:39;99998.91;;;6.67;72.18
70930;BME280;58588;48.102;19.682;2023-03-18T08:20:43;99993.75;;;6.84;69.71
70930;BME280;58588;48.102;19.682;2023-03-18T08:23:45;100001.91;;;7.10;65.88
70930;BME280;58588;48.102;19.682;2023-03-18T08:26:48;100000.25;;;7.62;63.38
70930;BME280;58588;48.102;19.682;2023-03-18T08:29:50;99997.88;;;7.59;62.36
70930;BME280;58588;48.102;19.682;2023-03-18T08:32:52;99994.09;;;7.88;57.38
70930;BME280;58588;48.102;19.682;2023-03-18T08:35:56;99991.19;;;8.07;56.92
70930;BME280;58588;48.102;19.682;2023-03-18T08:38:58;99987.66;;;8.32;53.81
70930;BME280;58588;48.102;19.682;2023-03-18T08:42:02;99987.31;;;8.53;54.27
70930;BME280;58588;48.102;19.682;2023-03-18T08:45:05;99978.78;;;8.58;55.87
70930;BME280;58588;48.102;19.682;2023-03-18T08:48:08;99988.66;;;8.57;56.32
70930;BME280;58588;48.102;19.682;2023-03-18T08:51:12;99989.00;;;9.05;54.95
70930;BME280;58588;48.102;19.682;2023-03-18T08:54:14;99985.38;;;9.38;51.25
70930;BME280;58588;48.102;19.682;2023-03-18T08:57:17;99990.25;;;10.00;54.43
70930;BME280;58588;48.102;19.682;2023-03-18T09:00:19;99987.72;;;10.15;53.08
70930;BME280;58588;48.102;19.682;2023-03-18T09:03:22;99979.81;;;10.77;52.50
70930;BME280;58588;48.102;19.682;2023-03-18T09:06:27;99975.00;;;10.64;49.61
70930;BME280;58588;48.102;19.682;2023-03-18T09:09:29;99975.44;;;10.76;47.96
70930;BME280;58588;48.102;19.682;2023-03-18T09:12:31;99978.34;;;11.06;48.04
70930;BME280;58588;48.102;19.682;2023-03-18T09:15:33;99971.16;;;11.21;47.67
70930;BME280;58588;48.102;19.682;2023-03-18T09:18:36;99971.34;;;10.88;46.20
70930;BME280;58588;48.102;19.682;2023-03-18T09:21:40;99983.81;;;11.20;46.81
70930;BME280;58588;48.102;19.682;2023-03-18T09:24:42;99968.97;;;11.47;41.54
70930;BME280;58588;48.102;19.682;2023-03-18T09:27:44;99976.03;;;11.71;41.26
70930;BME280;58588;48.102;19.682;2023-03-18T09:30:48;99969.91;;;11.32;42.45
70930;BME280;58588;48.102;19.682;2023-03-18T09:33:50;99966.56;;;11.52;39.81
70930;BME280;58588;48.102;19.682;2023-03-18T09:36:55;99965.34;;;11.78;40.77
70930;BME280;58588;48.102;19.682;2023-03-18T09:39:57;99953.91;;;12.14;41.79
70930;BME280;58588;48.102;19.682;2023-03-18T09:43:08;99959.03;;;12.38;42.06
70930;BME280;58588;48.102;19.682;2023-03-18T09:46:22;99953.63;;;12.68;41.54
70930;BME280;58588;48.102;19.682;2023-03-18T09:49:35;99952.59;;;12.83;39.61
70930;BME280;58588;48.102;19.682;2023-03-18T09:52:44;99960.53;;;13.43;41.11
70930;BME280;58588;48.102;19.682;2023-03-18T09:55:49;99952.84;;;13.25;40.05
70930;BME280;58588;48.102;19.682;2023-03-18T09:58:58;99956.88;;;13.72;38.04
70930;BME280;58588;48.102;19.682;2023-03-18T10:02:13;99953.44;;;13.84;38.60
70930;BME280;58588;48.102;19.682;2023-03-18T10:05:22;99948.00;;;13.84;38.01
70930;BME280;58588;48.102;19.682;2023-03-18T10:08:37;99946.09;;;13.35;38.69
70930;BME280;58588;48.102;19.682;2023-03-18T10:11:43;99943.22;;;13.58;39.14
70930;BME280;58588;48.102;19.682;2023-03-18T10:14:51;99930.00;;;13.98;35.11
70930;BME280;58588;48.102;19.682;2023-03-18T10:18:04;99929.72;;;13.65;35.32
70930;BME280;58588;48.102;19.682;2023-03-18T10:21:16;99933.06;;;13.67;37.61
70930;BME280;58588;48.102;19.682;2023-03-18T10:24:26;99916.66;;;14.31;37.13
70930;BME280;58588;48.102;19.682;2023-03-18T10:27:43;99936.31;;;14.81;36.45
70930;BME280;58588;48.102;19.682;2023-03-18T10:30:58;99922.59;;;14.89;34.68
70930;BME280;58588;48.102;19.682;2023-03-18T10:34:05;99926.38;;;14.47;34.29
70930;BME280;58588;48.102;19.682;2023-03-18T10:37:17;99921.31;;;14.85;34.28
70930;BME280;58588;48.102;19.682;2023-03-18T10:40:23;99913.91;;;15.14;33.47
70930;BME280;58588;48.102;19.682;2023-03-18T10:43:29;99919.84;;;14.76;31.21
70930;BME280;58588;48.102;19.682;2023-03-18T10:46:34;99920.38;;;15.06;36.70
70930;BME280;58588;48.102;19.682;2023-03-18T10:49:39;99913.59;;;14.82;32.78
70930;BME280;58588;48.102;19.682;2023-03-18T10:52:47;99905.91;;;14.10;35.42
70930;BME280;58588;48.102;19.682;2023-03-18T10:55:57;99902.34;;;14.92;34.31
70930;BME280;58588;48.102;19.682;2023-03-18T10:59:10;99903.88;;;15.21;33.99
70930;BME280;58588;48.102;19.682;2023-03-18T11:02:16;99893.06;;;15.54;32.03
70930;BME280;58588;48.102;19.682;2023-03-18T11:05:22;99899.38;;;15.68;29.68
70930;BME280;58588;48.102;19.682;2023-03-18T11:08:42;99892.03;;;15.62;33.97
70930;BME280;58588;48.102;19.682;2023-03-18T11:11:50;99887.63;;;16.00;30.96
70930;BME280;58588;48.102;19.682;2023-03-18T11:14:57;99885.53;;;16.02;31.85
70930;BME280;58588;48.102;19.682;2023-03-18T11:18:00;99874.75;;;16.47;31.53
70930;BME280;58588;48.102;19.682;2023-03-18T11:21:05;99876.72;;;16.20;32.38
70930;BME280;58588;48.102;19.682;2023-03-18T11:24:24;99875.72;;;16.01;33.37
70930;BME280;58588;48.102;19.682;2023-03-18T11:27:42;99872.25;;;16.46;33.04
70930;BME280;58588;48.102;19.682;2023-03-18T11:30:49;99870.56;;;16.51;33.13
70930;BME280;58588;48.102;19.682;2023-03-18T11:33:57;99862.63;;;16.37;34.37
70930;BME280;58588;48.102;19.682;2023-03-18T11:37:02;99863.41;;;16.57;30.41
70930;BME280;58588;48.102;19.682;2023-03-18T11:40:15;99852.38;;;16.39;29.56
70930;BME280;58588;48.102;19.682;2023-03-18T11:43:21;99850.78;;;16.76;31.23
70930;BME280;58588;48.102;19.682;2023-03-18T11:46:27;99842.16;;;16.85;30.49
70930;BME280;58588;48.102;19.682;2023-03-18T11:49:33;99848.59;;;16.98;31.04
70930;BME280;58588;48.102;19.682;2023-03-18T11:52:42;99841.81;;;17.07;30.76
70930;BME280;58588;48.102;19.682;2023-03-18T11:55:50;99848.16;;;17.26;31.82
70930;BME280;58588;48.102;19.682;2023-03-18T12:03:12;99835.03;;;16.84;30.52
70930;BME280;58588;48.102;19.682;2023-03-18T12:06:22;99834.88;;;17.36;29.88
70930;BME280;58588;48.102;19.682;2023-03-18T12:09:32;99824.34;;;17.15;33.06
70930;BME280;58588;48.102;19.682;2023-03-18T12:12:46;99818.69;;;17.16;31.54
70930;BME280;58588;48.102;19.682;2023-03-18T12:15:58;99841.69;;;17.20;29.66
70930;BME280;58588;48.102;19.682;2023-03-18T12:19:16;99820.84;;;17.07;29.69
70930;BME280;58588;48.102;19.682;2023-03-18T12:22:48;99829.63;;;17.41;29.96
70930;BME280;58588;48.102;19.682;2023-03-18T12:26:01;99824.94;;;17.73;28.66
70930;BME280;58588;48.102;19.682;2023-03-18T12:29:22;99822.91;;;16.80;25.81
70930;BME280;58588;48.102;19.682;2023-03-18T12:32:32;99818.13;;;17.07;30.20
70930;BME280;58588;48.102;19.682;2023-03-18T12:35:47;99815.59;;;17.37;27.90
70930;BME280;58588;48.102;19.682;2023-03-18T12:39:02;99826.88;;;17.66;30.30
70930;BME280;58588;48.102;19.682;2023-03-18T12:42:10;99814.66;;;17.69;29.29
70930;BME280;58588;48.102;19.682;2023-03-18T12:45:15;99811.81;;;17.63;29.96
70930;BME280;58588;48.102;19.682;2023-03-18T12:48:22;99807.25;;;17.82;29.46
70930;BME280;58588;48.102;19.682;2023-03-18T12:51:39;99817.16;;;17.52;30.88
70930;BME280;58588;48.102;19.682;2023-03-18T12:54:46;99807.50;;;16.99;27.64
70930;BME280;58588;48.102;19.682;2023-03-18T12:57:54;99807.69;;;17.98;28.69
70930;BME280;58588;48.102;19.682;2023-03-18T13:01:14;99807.09;;;17.27;29.36
70930;BME280;58588;48.102;19.682;2023-03-18T13:04:26;99800.50;;;17.60;28.69
70930;BME280;58588;48.102;19.682;2023-03-18T13:07:38;99804.78;;;17.74;29.50
70930;BME280;58588;48.102;19.682;2023-03-18T13:10:48;99794.88;;;17.80;29.55
70930;BME280;58588;48.102;19.682;2023-03-18T13:13:55;99802.69;;;17.76;29.48
70930;BME280;58588;48.102;19.682;2023-03-18T13:17:06;99807.13;;;17.71;28.59
70930;BME280;58588;48.102;19.682;2023-03-18T13:20:28;99799.38;;;17.67;28.58
70930;BME280;58588;48.102;19.682;2023-03-18T13:27:49;99791.47;;;17.41;30.71
70930;BME280;58588;48.102;19.682;2023-03-18T13:31:32;99792.22;;;17.73;31.14
70930;BME280;58588;48.102;19.682;2023-03-18T13:39:19;99785.81;;;18.04;26.57
70930;BME280;58588;48.102;19.682;2023-03-18T13:42:26;99791.88;;;17.88;28.48
70930;BME280;58588;48.102;19.682;2023-03-18T13:45:31;99781.09;;;17.75;27.55
70930;BME280;58588;48.102;19.682;2023-03-18T13:48:46;99788.09;;;17.64;30.20
70930;BME280;58588;48.102;19.682;2023-03-18T13:51:51;99789.50;;;17.48;30.80
70930;BME280;58588;48.102;19.682;2023-03-18T13:54:59;99785.28;;;17.27;29.35
70930;BME280;58588;48.102;19.682;2023-03-18T13:58:21;99789.56;;;17.42;28.33
70930;BME280;58588;48.102;19.682;2023-03-18T14:01:28;99788.84;;;17.28;31.13
70930;BME280;58588;48.102;19.682;2023-03-18T14:04:43;99787.06;;;17.40;31.19
70930;BME280;58588;48.102;19.682;2023-03-18T14:07:46;99791.41;;;17.23;31.62
70930;BME280;58588;48.102;19.682;2023-03-18T14:11:36;99784.78;;;17.12;32.15
70930;BME280;58588;48.102;19.682;2023-03-18T14:14:56;99780.19;;;16.81;33.53
70930;BME280;58588;48.102;19.682;2023-03-18T14:18:02;99780.56;;;16.84;33.64
70930;BME280;58588;48.102;19.682;2023-03-18T14:21:13;99781.63;;;17.08;33.21
70930;BME280;58588;48.102;19.682;2023-03-18T14:24:24;99772.47;;;17.03;34.23
70930;BME280;58588;48.102;19.682;2023-03-18T14:27:28;99774.69;;;16.88;33.43
70930;BME280;58588;48.102;19.682;2023-03-18T14:30:47;99773.41;;;16.90;34.09
70930;BME280;58588;48.102;19.682;2023-03-18T14:37:31;99768.66;;;16.79;34.38
70930;BME280;58588;48.102;19.682;2023-03-18T14:40:36;99765.00;;;16.53;35.47
70930;BME280;58588;48.102;19.682;2023-03-18T14:43:46;99768.03;;;16.77;36.13
70930;BME280;58588;48.102;19.682;2023-03-18T14:46:59;99766.81;;;16.28;36.04
70930;BME280;58588;48.102;19.682;2023-03-18T14:50:11;99763.50;;;16.26;35.38
70930;BME280;58588;48.102;19.682;2023-03-18T14:53:17;99767.09;;;16.13;36.65
70930;BME280;58588;48.102;19.682;2023-03-18T14:56:22;99751.88;;;15.99;36.48
70930;BME280;58588;48.102;19.682;2023-03-18T14:59:26;99761.09;;;15.98;36.57
70930;BME280;58588;48.102;19.682;2023-03-18T15:02:32;99754.06;;;15.50;37.55
70930;BME280;58588;48.102;19.682;2023-03-18T15:05:39;99749.28;;;15.13;38.62
70930;BME280;58588;48.102;19.682;2023-03-18T15:08:47;99757.22;;;15.27;39.23
70930;BME280;58588;48.102;19.682;2023-03-18T15:11:50;99749.69;;;14.83;39.50
70930;BME280;58588;48.102;19.682;2023-03-18T15:14:54;99751.16;;;14.86;40.19
70930;BME280;58588;48.102;19.682;2023-03-18T15:18:00;99751.16;;;15.39;40.22
70930;BME280;58588;48.102;19.682;2023-03-18T15:21:06;99751.38;;;16.22;37.40
70930;BME280;58588;48.102;19.682;2023-03-18T15:24:15;99756.88;;;16.47;37.31
70930;BME280;58588;48.102;19.682;2023-03-18T15:27:20;99753.91;;;16.55;36.39
70930;BME280;58588;48.102;19.682;2023-03-18T15:30:26;99749.78;;;17.09;36.36
70930;BME280;58588;48.102;19.682;2023-03-18T15:33:33;99751.78;;;18.25;35.35
70930;BME280;58588;48.102;19.682;2023-03-18T15:36:40;99754.59;;;18.00;36.37
70930;BME280;58588;48.102;19.682;2023-03-18T15:39:42;99757.16;;;17.95;35.49
70930;BME280;58588;48.102;19.682;2023-03-18T15:42:45;99766.94;;;18.03;35.28
70930;BME280;58588;48.102;19.682;2023-03-18T15:45:52;99757.84;;;17.47;36.35
70930;BME280;58588;48.102;19.682;2023-03-18T15:48:57;99761.34;;;17.54;37.07
70930;BME280;58588;48.102;19.682;2023-03-18T15:52:01;99763.25;;;17.54;36.53
70930;BME280;58588;48.102;19.682;2023-03-18T15:55:24;99770.81;;;17.27;37.50
70930;BME280;58588;48.102;19.682;2023-03-18T15:58:34;99773.03;;;17.11;38.30
70930;BME280;58588;48.102;19.682;2023-03-18T16:01:39;99771.44;;;16.66;39.29
70930;BME280;58588;48.102;19.682;2023-03-18T16:04:41;99770.78;;;15.67;40.93
70930;BME280;58588;48.102;19.682;2023-03-18T16:07:45;99776.84;;;14.96;42.80
70930;BME280;58588;48.102;19.682;2023-03-18T16:10:50;99778.94;;;14.33;44.44
70930;BME280;58588;48.102;19.682;2023-03-18T16:13:53;99776.69;;;13.89;44.46
70930;BME280;58588;48.102;19.682;2023-03-18T16:16:57;99779.53;;;13.74;45.35
70930;BME280;58588;48.102;19.682;2023-03-18T16:19:59;99785.25;;;13.30;47.25
70930;BME280;58588;48.102;19.682;2023-03-18T16:23:03;99782.75;;;12.85;46.60
70930;BME280;58588;48.102;19.682;2023-03-18T16:26:12;99785.38;;;12.57;46.88